AAL3024 KPBI-KCLT
Flight info
| Callsign | AAL3024 |
|---|---|
| Flight time | 1h 32m |
| Altitude | 35000 |
| Route | TBIRD7 VIYAP CHECR STOCR4 |
| Aircraft | B738/M-SDE2E3FGHIRWXY/LB1 |
Departure
| Time | 2026-04-21 06:46 |
|---|---|
| Airport | Palm Beach International Airport (KPBI) |
Arrival
| Time | 2026-04-21 08:19 |
|---|---|
| Airport | Charlotte Douglas International Airport (KCLT) |
| Time | Latitude | Longitude | Altitude | Speed | Heading |
|---|---|---|---|---|---|
| 2026-04-21 06:46 | 26.87324 | -80.23174 | 14898 ft | 349 kts | 288° |
| 2026-04-21 06:46 | 26.88109 | -80.25726 | 15483 ft | 354 kts | 288° |
| 2026-04-21 06:47 | 26.88925 | -80.28377 | 16130 ft | 357 kts | 287° |
| 2026-04-21 06:47 | 26.89722 | -80.30971 | 16839 ft | 357 kts | 287° |
| 2026-04-21 06:47 | 26.90578 | -80.33592 | 17537 ft | 359 kts | 293° |
| 2026-04-21 06:47 | 26.92034 | -80.35890 | 18183 ft | 368 kts | 311° |
| 2026-04-21 06:48 | 26.94072 | -80.37666 | 18763 ft | 378 kts | 327° |
| 2026-04-21 06:48 | 26.96509 | -80.38863 | 19312 ft | 384 kts | 333° |
| 2026-04-21 06:48 | 26.99022 | -80.39917 | 19860 ft | 387 kts | 334° |
| 2026-04-21 06:48 | 27.01555 | -80.40951 | 20381 ft | 389 kts | 334° |
| 2026-04-21 06:49 | 27.04103 | -80.42004 | 20923 ft | 390 kts | 334° |
| 2026-04-21 06:49 | 27.06648 | -80.43076 | 21489 ft | 391 kts | 334° |
| 2026-04-21 06:49 | 27.09199 | -80.44167 | 22044 ft | 393 kts | 334° |
| 2026-04-21 06:49 | 27.11757 | -80.45269 | 22584 ft | 395 kts | 334° |
| 2026-04-21 06:50 | 27.14329 | -80.46380 | 23089 ft | 397 kts | 334° |
| 2026-04-21 06:50 | 27.16916 | -80.47509 | 23613 ft | 398 kts | 333° |
| 2026-04-21 06:50 | 27.19484 | -80.48683 | 24046 ft | 399 kts | 332° |
| 2026-04-21 06:50 | 27.22062 | -80.49883 | 24427 ft | 401 kts | 332° |
| 2026-04-21 06:51 | 27.24617 | -80.51073 | 24792 ft | 404 kts | 332° |
| 2026-04-21 06:51 | 27.27219 | -80.52278 | 25173 ft | 406 kts | 331° |
| 2026-04-21 06:51 | 27.29843 | -80.53489 | 25550 ft | 407 kts | 331° |
| 2026-04-21 06:51 | 27.32468 | -80.54705 | 25902 ft | 409 kts | 330° |
| 2026-04-21 06:52 | 27.35078 | -80.55997 | 26260 ft | 411 kts | 329° |
| 2026-04-21 06:52 | 27.37684 | -80.57338 | 26625 ft | 412 kts | 329° |
| 2026-04-21 06:52 | 27.40292 | -80.58688 | 26990 ft | 414 kts | 328° |
| 2026-04-21 06:52 | 27.42916 | -80.60039 | 27324 ft | 416 kts | 328° |
| 2026-04-21 06:53 | 27.45558 | -80.61390 | 27649 ft | 418 kts | 328° |
| 2026-04-21 06:53 | 27.48218 | -80.62744 | 27979 ft | 420 kts | 328° |
| 2026-04-21 06:53 | 27.50883 | -80.64105 | 28305 ft | 421 kts | 327° |
| 2026-04-21 06:53 | 27.53335 | -80.65828 | 28583 ft | 410 kts | 313° |
| 2026-04-21 06:54 | 27.55428 | -80.68001 | 28949 ft | 409 kts | 311° |
| 2026-04-21 06:54 | 27.57539 | -80.70147 | 29409 ft | 408 kts | 312° |
| 2026-04-21 06:54 | 27.59661 | -80.72267 | 29920 ft | 406 kts | 312° |
| 2026-04-21 06:54 | 27.61773 | -80.74360 | 30398 ft | 403 kts | 312° |
| 2026-04-21 06:55 | 27.63874 | -80.76437 | 30822 ft | 401 kts | 312° |
| 2026-04-21 06:55 | 27.65960 | -80.78500 | 31257 ft | 398 kts | 312° |
| 2026-04-21 06:55 | 27.68010 | -80.80530 | 31685 ft | 395 kts | 312° |
| 2026-04-21 06:55 | 27.70066 | -80.82570 | 32099 ft | 393 kts | 311° |
| 2026-04-21 06:56 | 27.72111 | -80.84601 | 32523 ft | 390 kts | 311° |
| 2026-04-21 06:56 | 27.74144 | -80.86621 | 32950 ft | 388 kts | 311° |
| 2026-04-21 06:56 | 27.76163 | -80.88628 | 33377 ft | 386 kts | 311° |
| 2026-04-21 06:56 | 27.78168 | -80.90621 | 33870 ft | 381 kts | 311° |
| 2026-04-21 06:57 | 27.80143 | -80.92582 | 34416 ft | 374 kts | 311° |
| 2026-04-21 06:57 | 27.82245 | -80.94351 | 34682 ft | 385 kts | 322° |
| 2026-04-21 06:57 | 27.84764 | -80.95560 | 34835 ft | 403 kts | 334° |
| 2026-04-21 06:57 | 27.87549 | -80.96218 | 35069 ft | 412 kts | 339° |
| 2026-04-21 06:58 | 27.90394 | -80.96755 | 35155 ft | 417 kts | 340° |
| 2026-04-21 06:58 | 27.96136 | -80.97780 | 35162 ft | 417 kts | 340° |
| 2026-04-21 06:59 | 28.01798 | -80.98825 | 35179 ft | 409 kts | 340° |
| 2026-04-21 06:59 | 28.07372 | -80.99900 | 35235 ft | 408 kts | 339° |
| 2026-04-21 07:00 | 28.12973 | -81.00995 | 35188 ft | 409 kts | 340° |
| 2026-04-21 07:00 | 28.18594 | -81.02091 | 35199 ft | 409 kts | 340° |
| 2026-04-21 07:01 | 28.24217 | -81.03187 | 35196 ft | 409 kts | 340° |
| 2026-04-21 07:01 | 28.32616 | -81.04826 | 35212 ft | 408 kts | 340° |
| 2026-04-21 07:02 | 28.38129 | -81.06113 | 35246 ft | 396 kts | 332° |
| 2026-04-21 07:02 | 28.43245 | -81.08328 | 35228 ft | 392 kts | 329° |
| 2026-04-21 07:03 | 28.48311 | -81.10623 | 35220 ft | 392 kts | 329° |
| 2026-04-21 07:03 | 28.53359 | -81.12852 | 35221 ft | 392 kts | 330° |
| 2026-04-21 07:04 | 28.58459 | -81.15068 | 35220 ft | 392 kts | 330° |
| 2026-04-21 07:04 | 28.63559 | -81.17276 | 35228 ft | 392 kts | 330° |
| 2026-04-21 07:05 | 28.68669 | -81.19490 | 35260 ft | 393 kts | 329° |
| 2026-04-21 07:05 | 28.73780 | -81.21707 | 35242 ft | 393 kts | 329° |
| 2026-04-21 07:06 | 28.78897 | -81.23929 | 35240 ft | 392 kts | 329° |
| 2026-04-21 07:06 | 28.84000 | -81.26149 | 35235 ft | 392 kts | 329° |
| 2026-04-21 07:07 | 28.89061 | -81.28351 | 35242 ft | 391 kts | 329° |
| 2026-04-21 07:07 | 28.94443 | -81.29820 | 35276 ft | 412 kts | 345° |
| 2026-04-21 07:08 | 29.00178 | -81.30201 | 35264 ft | 414 kts | 345° |
| 2026-04-21 07:08 | 29.05921 | -81.30596 | 35262 ft | 413 kts | 345° |
| 2026-04-21 07:09 | 29.11655 | -81.31038 | 35254 ft | 412 kts | 344° |
| 2026-04-21 07:09 | 29.17377 | -81.31495 | 35256 ft | 412 kts | 344° |
| 2026-04-21 07:10 | 29.23082 | -81.31951 | 35257 ft | 411 kts | 344° |
| 2026-04-21 07:10 | 29.28797 | -81.32401 | 35265 ft | 412 kts | 344° |
| 2026-04-21 07:11 | 29.34542 | -81.32752 | 35278 ft | 413 kts | 345° |
| 2026-04-21 07:11 | 29.40238 | -81.33068 | 35272 ft | 412 kts | 345° |
| 2026-04-21 07:12 | 29.45965 | -81.33394 | 35274 ft | 412 kts | 344° |
| 2026-04-21 07:12 | 29.51689 | -81.33728 | 35275 ft | 411 kts | 344° |
| 2026-04-21 07:13 | 29.57403 | -81.34065 | 35282 ft | 411 kts | 344° |
| 2026-04-21 07:13 | 29.63117 | -81.34403 | 35281 ft | 411 kts | 344° |
| 2026-04-21 07:14 | 29.68825 | -81.34741 | 35282 ft | 411 kts | 344° |
| 2026-04-21 07:14 | 29.74533 | -81.35079 | 35280 ft | 410 kts | 344° |
| 2026-04-21 07:15 | 29.80200 | -81.35415 | 35283 ft | 410 kts | 344° |
| 2026-04-21 07:15 | 29.85898 | -81.35754 | 35301 ft | 410 kts | 343° |
| 2026-04-21 07:16 | 29.91605 | -81.36093 | 35298 ft | 410 kts | 343° |
| 2026-04-21 07:16 | 29.97303 | -81.36432 | 35292 ft | 410 kts | 343° |
| 2026-04-21 07:17 | 30.03001 | -81.36771 | 35295 ft | 410 kts | 343° |
| 2026-04-21 07:17 | 30.08700 | -81.37111 | 35295 ft | 409 kts | 343° |
| 2026-04-21 07:18 | 30.14391 | -81.37451 | 35318 ft | 410 kts | 343° |
| 2026-04-21 07:18 | 30.20086 | -81.37792 | 35301 ft | 410 kts | 343° |
| 2026-04-21 07:19 | 30.25790 | -81.38133 | 35300 ft | 410 kts | 343° |
| 2026-04-21 07:19 | 30.31478 | -81.38473 | 35303 ft | 409 kts | 343° |
| 2026-04-21 07:20 | 30.37166 | -81.38815 | 35304 ft | 409 kts | 343° |
| 2026-04-21 07:20 | 30.42838 | -81.39156 | 35305 ft | 408 kts | 343° |
| 2026-04-21 07:21 | 30.48488 | -81.39487 | 35302 ft | 409 kts | 343° |
| 2026-04-21 07:21 | 30.53246 | -81.39741 | 35292 ft | 409 kts | 343° |
| 2026-04-21 07:22 | 30.59848 | -81.40086 | 35294 ft | 408 kts | 343° |
| 2026-04-21 07:22 | 30.65527 | -81.40388 | 35294 ft | 408 kts | 343° |
| 2026-04-21 07:23 | 30.71212 | -81.40692 | 35297 ft | 409 kts | 343° |
| 2026-04-21 07:23 | 30.75938 | -81.40945 | 35314 ft | 409 kts | 343° |
| 2026-04-21 07:24 | 30.81615 | -81.41249 | 35303 ft | 408 kts | 343° |
| 2026-04-21 07:24 | 30.87281 | -81.41552 | 35298 ft | 407 kts | 343° |
| 2026-04-21 07:25 | 30.92937 | -81.41856 | 35299 ft | 406 kts | 343° |
| 2026-04-21 07:25 | 30.98584 | -81.42161 | 35311 ft | 406 kts | 343° |
| 2026-04-21 07:26 | 31.04231 | -81.42465 | 35301 ft | 405 kts | 343° |
| 2026-04-21 07:26 | 31.09853 | -81.42768 | 35292 ft | 404 kts | 343° |
| 2026-04-21 07:27 | 31.15428 | -81.43070 | 35292 ft | 403 kts | 343° |
| 2026-04-21 07:27 | 31.21018 | -81.43372 | 35302 ft | 402 kts | 343° |
| 2026-04-21 07:28 | 31.26692 | -81.43128 | 35303 ft | 434 kts | 2° |
| 2026-04-21 07:28 | 31.32317 | -81.40863 | 35309 ft | 442 kts | 6° |
| 2026-04-21 07:29 | 31.38087 | -81.38416 | 35304 ft | 440 kts | 5° |
| 2026-04-21 07:29 | 31.43858 | -81.36010 | 35298 ft | 439 kts | 5° |
| 2026-04-21 07:30 | 31.49568 | -81.33666 | 35300 ft | 437 kts | 5° |
| 2026-04-21 07:30 | 31.55325 | -81.31313 | 35303 ft | 437 kts | 5° |
| 2026-04-21 07:31 | 31.61078 | -81.28959 | 35297 ft | 437 kts | 5° |
| 2026-04-21 07:31 | 31.66809 | -81.26610 | 35300 ft | 436 kts | 5° |
| 2026-04-21 07:32 | 31.72538 | -81.24258 | 35285 ft | 435 kts | 5° |
| 2026-04-21 07:32 | 31.78217 | -81.21923 | 35307 ft | 435 kts | 4° |
| 2026-04-21 07:33 | 31.83927 | -81.19573 | 35279 ft | 434 kts | 4° |
| 2026-04-21 07:33 | 31.89616 | -81.17228 | 35266 ft | 434 kts | 4° |
| 2026-04-21 07:34 | 31.95321 | -81.14872 | 35267 ft | 433 kts | 4° |
| 2026-04-21 07:34 | 32.00999 | -81.12526 | 35267 ft | 432 kts | 4° |
| 2026-04-21 07:35 | 32.06676 | -81.10177 | 35315 ft | 433 kts | 4° |
| 2026-04-21 07:35 | 32.12366 | -81.07822 | 35292 ft | 433 kts | 4° |
| 2026-04-21 07:36 | 32.18057 | -81.05459 | 35267 ft | 433 kts | 4° |
| 2026-04-21 07:36 | 32.23734 | -81.03099 | 35283 ft | 432 kts | 4° |
| 2026-04-21 07:37 | 32.29409 | -81.00738 | 35278 ft | 432 kts | 4° |
| 2026-04-21 07:37 | 32.35087 | -80.98374 | 35293 ft | 433 kts | 4° |
| 2026-04-21 07:38 | 32.40766 | -80.96005 | 35288 ft | 433 kts | 4° |
| 2026-04-21 07:38 | 32.46452 | -80.93629 | 35289 ft | 433 kts | 4° |
| 2026-04-21 07:39 | 32.52098 | -80.91268 | 35285 ft | 433 kts | 4° |
| 2026-04-21 07:39 | 32.57788 | -80.88885 | 35339 ft | 434 kts | 4° |
| 2026-04-21 07:40 | 32.63503 | -80.86489 | 35295 ft | 435 kts | 4° |
| 2026-04-21 07:40 | 32.69217 | -80.84088 | 35281 ft | 436 kts | 4° |
| 2026-04-21 07:41 | 32.74890 | -80.81228 | 35286 ft | 452 kts | 13° |
| 2026-04-21 07:41 | 32.80429 | -80.77586 | 35271 ft | 456 kts | 15° |
| 2026-04-21 07:42 | 32.85925 | -80.73904 | 35295 ft | 457 kts | 15° |
| 2026-04-21 07:42 | 32.91479 | -80.70246 | 35278 ft | 455 kts | 15° |
| 2026-04-21 07:43 | 32.97026 | -80.66630 | 35272 ft | 454 kts | 15° |
| 2026-04-21 07:43 | 33.02560 | -80.63029 | 35273 ft | 452 kts | 15° |
| 2026-04-21 07:44 | 33.08082 | -80.59429 | 35264 ft | 451 kts | 15° |
| 2026-04-21 07:44 | 33.13582 | -80.55837 | 35266 ft | 451 kts | 15° |
| 2026-04-21 07:45 | 33.19076 | -80.52244 | 35271 ft | 450 kts | 15° |
| 2026-04-21 07:45 | 33.21824 | -80.50445 | 35142 ft | 451 kts | 15° |
| 2026-04-21 07:45 | 33.24574 | -80.48642 | 34814 ft | 447 kts | 15° |
| 2026-04-21 07:46 | 33.27280 | -80.46859 | 34460 ft | 442 kts | 14° |
| 2026-04-21 07:46 | 33.29959 | -80.45096 | 34061 ft | 438 kts | 14° |
| 2026-04-21 07:46 | 33.32619 | -80.43348 | 33679 ft | 434 kts | 15° |
| 2026-04-21 07:46 | 33.35250 | -80.41619 | 33255 ft | 430 kts | 15° |
| 2026-04-21 07:47 | 33.37830 | -80.39923 | 32866 ft | 426 kts | 16° |
| 2026-04-21 07:47 | 33.40422 | -80.38218 | 32489 ft | 422 kts | 16° |
| 2026-04-21 07:47 | 33.42983 | -80.36533 | 32106 ft | 419 kts | 16° |
| 2026-04-21 07:47 | 33.45521 | -80.34861 | 31738 ft | 415 kts | 16° |
| 2026-04-21 07:48 | 33.48041 | -80.33200 | 31390 ft | 411 kts | 16° |
| 2026-04-21 07:48 | 33.50533 | -80.31557 | 31034 ft | 407 kts | 16° |
| 2026-04-21 07:48 | 33.53008 | -80.29924 | 30679 ft | 404 kts | 17° |
| 2026-04-21 07:48 | 33.55461 | -80.28305 | 30328 ft | 401 kts | 17° |
| 2026-04-21 07:49 | 33.57894 | -80.26696 | 29967 ft | 397 kts | 17° |
| 2026-04-21 07:49 | 33.60296 | -80.25104 | 29661 ft | 390 kts | 18° |
| 2026-04-21 07:49 | 33.62652 | -80.23536 | 29354 ft | 384 kts | 18° |
| 2026-04-21 07:49 | 33.64971 | -80.21996 | 29013 ft | 379 kts | 18° |
| 2026-04-21 07:50 | 33.67269 | -80.20471 | 28634 ft | 375 kts | 18° |
| 2026-04-21 07:50 | 33.69538 | -80.18963 | 28267 ft | 371 kts | 18° |
| 2026-04-21 07:50 | 33.71752 | -80.17490 | 27915 ft | 367 kts | 18° |
| 2026-04-21 07:50 | 33.74007 | -80.15988 | 27595 ft | 363 kts | 18° |
| 2026-04-21 07:51 | 33.76179 | -80.14541 | 27211 ft | 361 kts | 18° |
| 2026-04-21 07:51 | 33.78366 | -80.13084 | 26853 ft | 358 kts | 18° |
| 2026-04-21 07:51 | 33.80563 | -80.11621 | 26492 ft | 355 kts | 18° |
| 2026-04-21 07:51 | 33.82686 | -80.10205 | 26176 ft | 352 kts | 18° |
| 2026-04-21 07:52 | 33.84847 | -80.08762 | 25817 ft | 350 kts | 18° |
| 2026-04-21 07:52 | 33.86939 | -80.07366 | 25470 ft | 347 kts | 18° |
| 2026-04-21 07:52 | 33.89042 | -80.05961 | 25126 ft | 344 kts | 18° |
| 2026-04-21 07:52 | 33.91156 | -80.04548 | 24782 ft | 342 kts | 18° |
| 2026-04-21 07:53 | 33.93230 | -80.03161 | 24440 ft | 340 kts | 18° |
| 2026-04-21 07:53 | 33.95291 | -80.01782 | 24094 ft | 338 kts | 19° |
| 2026-04-21 07:53 | 33.97316 | -80.00426 | 23749 ft | 335 kts | 18° |
| 2026-04-21 07:53 | 33.99427 | -79.99484 | 23315 ft | 313 kts | 358° |
| 2026-04-21 07:54 | 34.01536 | -79.99483 | 23016 ft | 296 kts | 344° |
| 2026-04-21 07:54 | 34.03481 | -80.00121 | 22691 ft | 286 kts | 332° |
| 2026-04-21 07:54 | 34.05284 | -80.01110 | 22382 ft | 284 kts | 329° |
| 2026-04-21 07:54 | 34.07070 | -80.02177 | 22112 ft | 287 kts | 329° |
| 2026-04-21 07:55 | 34.08860 | -80.03262 | 21801 ft | 288 kts | 329° |
| 2026-04-21 07:55 | 34.10651 | -80.04341 | 21472 ft | 287 kts | 329° |
| 2026-04-21 07:55 | 34.12416 | -80.05398 | 21162 ft | 285 kts | 329° |
| 2026-04-21 07:55 | 34.14190 | -80.06455 | 20858 ft | 283 kts | 329° |
| 2026-04-21 07:56 | 34.15956 | -80.07504 | 20562 ft | 282 kts | 329° |
| 2026-04-21 07:56 | 34.17714 | -80.08546 | 20250 ft | 281 kts | 329° |
| 2026-04-21 07:56 | 34.19467 | -80.09584 | 19959 ft | 280 kts | 329° |
| 2026-04-21 07:56 | 34.21216 | -80.10619 | 19666 ft | 279 kts | 329° |
| 2026-04-21 07:57 | 34.22962 | -80.11652 | 19370 ft | 279 kts | 329° |
| 2026-04-21 07:57 | 34.24708 | -80.12685 | 19077 ft | 279 kts | 329° |
| 2026-04-21 07:57 | 34.26453 | -80.13719 | 18777 ft | 279 kts | 329° |
| 2026-04-21 07:57 | 34.28217 | -80.14764 | 18269 ft | 285 kts | 329° |
| 2026-04-21 07:58 | 34.29999 | -80.15820 | 17897 ft | 286 kts | 329° |
| 2026-04-21 07:58 | 34.31780 | -80.16874 | 17570 ft | 283 kts | 329° |
| 2026-04-21 07:58 | 34.33518 | -80.17903 | 17253 ft | 279 kts | 329° |
| 2026-04-21 07:58 | 34.35253 | -80.18931 | 16961 ft | 276 kts | 329° |
| 2026-04-21 07:59 | 34.36977 | -80.19954 | 16668 ft | 276 kts | 329° |
| 2026-04-21 07:59 | 34.38704 | -80.20979 | 16372 ft | 277 kts | 329° |
| 2026-04-21 07:59 | 34.40439 | -80.22009 | 16071 ft | 277 kts | 329° |
| 2026-04-21 07:59 | 34.42175 | -80.23041 | 15784 ft | 278 kts | 329° |
| 2026-04-21 08:00 | 34.43908 | -80.24071 | 15504 ft | 278 kts | 329° |
| 2026-04-21 08:00 | 34.45655 | -80.25110 | 15199 ft | 279 kts | 329° |
| 2026-04-21 08:00 | 34.47404 | -80.26151 | 14904 ft | 280 kts | 329° |
| 2026-04-21 08:00 | 34.49153 | -80.27192 | 14606 ft | 281 kts | 329° |
| 2026-04-21 08:01 | 34.50913 | -80.28240 | 14297 ft | 281 kts | 329° |
| 2026-04-21 08:01 | 34.52657 | -80.29279 | 13995 ft | 278 kts | 329° |
| 2026-04-21 08:01 | 34.54386 | -80.30309 | 13653 ft | 276 kts | 329° |
| 2026-04-21 08:02 | 34.57770 | -80.32327 | 13068 ft | 270 kts | 330° |
| 2026-04-21 08:02 | 34.59452 | -80.33331 | 12775 ft | 268 kts | 330° |
| 2026-04-21 08:02 | 34.61094 | -80.34432 | 12491 ft | 264 kts | 322° |
| 2026-04-21 08:02 | 34.62512 | -80.35783 | 12224 ft | 261 kts | 319° |
| 2026-04-21 08:03 | 34.63908 | -80.37184 | 11939 ft | 258 kts | 319° |
| 2026-04-21 08:03 | 34.65280 | -80.38540 | 11650 ft | 249 kts | 319° |
| 2026-04-21 08:03 | 34.66610 | -80.39836 | 11389 ft | 240 kts | 319° |
| 2026-04-21 08:03 | 34.67896 | -80.41081 | 11143 ft | 232 kts | 320° |
| 2026-04-21 08:04 | 34.69137 | -80.42283 | 10898 ft | 224 kts | 319° |
| 2026-04-21 08:04 | 34.70332 | -80.43453 | 10672 ft | 216 kts | 319° |
| 2026-04-21 08:04 | 34.71479 | -80.44580 | 10451 ft | 209 kts | 319° |
| 2026-04-21 08:04 | 34.72596 | -80.45678 | 10248 ft | 205 kts | 319° |
| 2026-04-21 08:05 | 34.73706 | -80.46769 | 10037 ft | 206 kts | 319° |
| 2026-04-21 08:05 | 34.74822 | -80.47865 | 9811 ft | 207 kts | 319° |
| 2026-04-21 08:05 | 34.75941 | -80.48964 | 9583 ft | 207 kts | 319° |
| 2026-04-21 08:05 | 34.77059 | -80.50063 | 9367 ft | 206 kts | 319° |
| 2026-04-21 08:06 | 34.78177 | -80.51162 | 9146 ft | 206 kts | 319° |
| 2026-04-21 08:06 | 34.79272 | -80.52238 | 8940 ft | 205 kts | 319° |
| 2026-04-21 08:06 | 34.80381 | -80.53327 | 8737 ft | 205 kts | 320° |
| 2026-04-21 08:06 | 34.81487 | -80.54417 | 8518 ft | 204 kts | 319° |
| 2026-04-21 08:07 | 34.82588 | -80.55504 | 8313 ft | 203 kts | 320° |
| 2026-04-21 08:07 | 34.83684 | -80.56586 | 8094 ft | 202 kts | 320° |
| 2026-04-21 08:07 | 34.84770 | -80.57660 | 7895 ft | 200 kts | 320° |
| 2026-04-21 08:07 | 34.85847 | -80.58724 | 7686 ft | 199 kts | 320° |
| 2026-04-21 08:08 | 34.86918 | -80.59783 | 7484 ft | 197 kts | 320° |
| 2026-04-21 08:08 | 34.87980 | -80.60834 | 7285 ft | 196 kts | 319° |
| 2026-04-21 08:08 | 34.88793 | -80.62138 | 7046 ft | 196 kts | 289° |
| 2026-04-21 08:08 | 34.88988 | -80.63770 | 6893 ft | 196 kts | 270° |
| 2026-04-21 08:09 | 34.88719 | -80.65413 | 6693 ft | 198 kts | 262° |
| 2026-04-21 08:09 | 34.88414 | -80.67040 | 6472 ft | 202 kts | 263° |
| 2026-04-21 08:09 | 34.88107 | -80.68720 | 6267 ft | 205 kts | 262° |
| 2026-04-21 08:09 | 34.87798 | -80.70407 | 6075 ft | 202 kts | 262° |
| 2026-04-21 08:10 | 34.87667 | -80.72079 | 5993 ft | 196 kts | 285° |
| 2026-04-21 08:10 | 34.88084 | -80.73635 | 6007 ft | 193 kts | 290° |
| 2026-04-21 08:10 | 34.88359 | -80.74665 | 5996 ft | 193 kts | 290° |
| 2026-04-21 08:10 | 34.88769 | -80.76223 | 6005 ft | 195 kts | 290° |
| 2026-04-21 08:11 | 34.89332 | -80.78352 | 5993 ft | 198 kts | 290° |
| 2026-04-21 08:11 | 34.89612 | -80.79411 | 5992 ft | 197 kts | 290° |
| 2026-04-21 08:11 | 34.90034 | -80.80998 | 5993 ft | 198 kts | 290° |
| 2026-04-21 08:11 | 34.90456 | -80.82588 | 5988 ft | 196 kts | 289° |
| 2026-04-21 08:12 | 34.90876 | -80.84165 | 5984 ft | 194 kts | 289° |
| 2026-04-21 08:12 | 34.91290 | -80.85723 | 5991 ft | 192 kts | 289° |
| 2026-04-21 08:12 | 34.91701 | -80.87271 | 5985 ft | 191 kts | 289° |
| 2026-04-21 08:12 | 34.92109 | -80.88803 | 5982 ft | 190 kts | 289° |
| 2026-04-21 08:13 | 34.92674 | -80.90237 | 5969 ft | 190 kts | 315° |
| 2026-04-21 08:13 | 34.93903 | -80.90895 | 5798 ft | 209 kts | 352° |
| 2026-04-21 08:13 | 34.95369 | -80.90997 | 5546 ft | 211 kts | 345° |
| 2026-04-21 08:13 | 34.96803 | -80.91366 | 5292 ft | 212 kts | 347° |
| 2026-04-21 08:14 | 34.98285 | -80.91545 | 5017 ft | 216 kts | 351° |
| 2026-04-21 08:14 | 34.99789 | -80.91667 | 4715 ft | 217 kts | 352° |
| 2026-04-21 08:14 | 35.01285 | -80.91788 | 4440 ft | 214 kts | 351° |
| 2026-04-21 08:14 | 35.02761 | -80.91912 | 4146 ft | 210 kts | 351° |
| 2026-04-21 08:15 | 35.04175 | -80.92033 | 3868 ft | 202 kts | 351° |
| 2026-04-21 08:15 | 35.05537 | -80.92151 | 3601 ft | 188 kts | 351° |
| 2026-04-21 08:15 | 35.06802 | -80.92259 | 3382 ft | 176 kts | 351° |
| 2026-04-21 08:15 | 35.07983 | -80.92361 | 3119 ft | 164 kts | 351° |
| 2026-04-21 08:16 | 35.09122 | -80.92462 | 2932 ft | 167 kts | 351° |
| 2026-04-21 08:16 | 35.10286 | -80.92564 | 2690 ft | 166 kts | 351° |
| 2026-04-21 08:16 | 35.11390 | -80.92659 | 2496 ft | 153 kts | 350° |
| 2026-04-21 08:16 | 35.12459 | -80.92752 | 2292 ft | 156 kts | 350° |
| 2026-04-21 08:17 | 35.13503 | -80.92841 | 2082 ft | 146 kts | 349° |
| 2026-04-21 08:17 | 35.14515 | -80.92929 | 1878 ft | 147 kts | 348° |
| 2026-04-21 08:17 | 35.15544 | -80.93020 | 1699 ft | 150 kts | 351° |
| 2026-04-21 08:17 | 35.16588 | -80.93111 | 1469 ft | 152 kts | 353° |
| 2026-04-21 08:18 | 35.17643 | -80.93200 | 1269 ft | 150 kts | 351° |
| 2026-04-21 08:18 | 35.18704 | -80.93295 | 1085 ft | 155 kts | 349° |
| 2026-04-21 08:18 | 35.19789 | -80.93394 | 867 ft | 158 kts | 355° |
| 2026-04-21 08:18 | 35.20844 | -80.93477 | 735 ft | 144 kts | 349° |
| 2026-04-21 08:19 | 35.21693 | -80.93556 | 734 ft | 101 kts | 356° |
| 2026-04-21 08:19 | 35.22058 | -80.93617 | 734 ft | 27 kts | 325° |
| 2026-04-21 08:19 | 35.22118 | -80.93667 | 733 ft | 7 kts | 325° |
| 2026-04-21 08:19 | 35.22134 | -80.93681 | 733 ft | 0 kts | 323° |
| 2026-04-21 08:20 | 35.22142 | -80.93688 | 732 ft | 4 kts | 322° |
| 2026-04-21 08:21 | 35.22179 | -80.93731 | 732 ft | 11 kts | 302° |
| 2026-04-21 08:21 | 35.22154 | -80.93805 | 731 ft | 11 kts | 193° |
| 2026-04-21 08:21 | 35.22064 | -80.93803 | 731 ft | 16 kts | 179° |
| 2026-04-21 08:21 | 35.21938 | -80.93885 | 731 ft | 24 kts | 228° |
| 2026-04-21 08:22 | 35.21852 | -80.93936 | 731 ft | 6 kts | 208° |
| 2026-04-21 08:22 | 35.21810 | -80.93981 | 730 ft | 12 kts | 225° |
| 2026-04-21 08:22 | 35.21776 | -80.94091 | 731 ft | 10 kts | 285° |
| 2026-04-21 08:22 | 35.21792 | -80.94152 | 731 ft | 3 kts | 286° |
| 2026-04-21 08:23 | 35.21792 | -80.94155 | 731 ft | 0 kts | 286° |